sensor_id;sensor_type;location;lat;lon;timestamp;P1;durP1;ratioP1;P2;durP2;ratioP2
22072;SDS011;11202;50.916;4.698;2022-10-23T00:01:35;17.20;;;6.00;;
22072;SDS011;11202;50.916;4.698;2022-10-23T00:04:06;13.27;;;5.60;;
22072;SDS011;11202;50.916;4.698;2022-10-23T00:06:35;11.98;;;5.47;;
22072;SDS011;11202;50.916;4.698;2022-10-23T00:09:02;15.50;;;5.80;;
22072;SDS011;11202;50.916;4.698;2022-10-23T00:11:30;12.40;;;5.43;;
22072;SDS011;11202;50.916;4.698;2022-10-23T00:13:58;20.88;;;6.05;;
22072;SDS011;11202;50.916;4.698;2022-10-23T00:16:27;14.32;;;5.53;;
22072;SDS011;11202;50.916;4.698;2022-10-23T00:18:53;18.25;;;6.15;;
22072;SDS011;11202;50.916;4.698;2022-10-23T00:21:20;15.30;;;5.15;;
22072;SDS011;11202;50.916;4.698;2022-10-23T00:23:46;13.65;;;5.40;;
22072;SDS011;11202;50.916;4.698;2022-10-23T00:26:17;12.50;;;5.10;;
22072;SDS011;11202;50.916;4.698;2022-10-23T00:28:47;16.23;;;5.13;;
22072;SDS011;11202;50.916;4.698;2022-10-23T00:31:15;13.15;;;5.18;;
22072;SDS011;11202;50.916;4.698;2022-10-23T00:33:42;14.40;;;5.15;;
22072;SDS011;11202;50.916;4.698;2022-10-23T00:36:09;13.23;;;5.43;;
22072;SDS011;11202;50.916;4.698;2022-10-23T00:38:37;16.85;;;4.65;;
22072;SDS011;11202;50.916;4.698;2022-10-23T00:41:03;18.73;;;5.35;;
22072;SDS011;11202;50.916;4.698;2022-10-23T00:43:33;11.48;;;4.53;;
22072;SDS011;11202;50.916;4.698;2022-10-23T00:46:17;12.27;;;4.50;;
22072;SDS011;11202;50.916;4.698;2022-10-23T00:48:45;13.65;;;4.85;;
22072;SDS011;11202;50.916;4.698;2022-10-23T00:51:13;16.73;;;5.30;;
22072;SDS011;11202;50.916;4.698;2022-10-23T00:53:39;15.02;;;5.85;;
22072;SDS011;11202;50.916;4.698;2022-10-23T00:56:10;8.93;;;4.25;;
22072;SDS011;11202;50.916;4.698;2022-10-23T00:58:36;12.65;;;4.57;;
22072;SDS011;11202;50.916;4.698;2022-10-23T01:01:13;6.90;;;4.22;;
22072;SDS011;11202;50.916;4.698;2022-10-23T01:03:41;12.85;;;5.43;;
22072;SDS011;11202;50.916;4.698;2022-10-23T01:06:12;10.57;;;4.28;;
22072;SDS011;11202;50.916;4.698;2022-10-23T01:08:51;9.65;;;3.85;;
22072;SDS011;11202;50.916;4.698;2022-10-23T01:16:48;12.20;;;4.05;;
22072;SDS011;11202;50.916;4.698;2022-10-23T01:19:26;8.23;;;4.00;;
22072;SDS011;11202;50.916;4.698;2022-10-23T01:24:58;15.82;;;3.95;;
22072;SDS011;11202;50.916;4.698;2022-10-23T01:27:35;10.85;;;4.10;;
22072;SDS011;11202;50.916;4.698;2022-10-23T01:30:10;8.15;;;3.50;;
22072;SDS011;11202;50.916;4.698;2022-10-23T01:32:43;9.65;;;3.60;;
22072;SDS011;11202;50.916;4.698;2022-10-23T01:37:56;8.50;;;3.65;;
22072;SDS011;11202;50.916;4.698;2022-10-23T01:40:39;16.63;;;3.85;;
22072;SDS011;11202;50.916;4.698;2022-10-23T01:43:19;10.55;;;3.80;;
22072;SDS011;11202;50.916;4.698;2022-10-23T01:45:59;7.70;;;3.05;;
22072;SDS011;11202;50.916;4.698;2022-10-23T01:48:33;10.70;;;3.55;;
22072;SDS011;11202;50.916;4.698;2022-10-23T01:51:02;12.50;;;3.30;;
22072;SDS011;11202;50.916;4.698;2022-10-23T01:53:32;7.03;;;3.25;;
22072;SDS011;11202;50.916;4.698;2022-10-23T01:56:02;9.68;;;3.85;;
22072;SDS011;11202;50.916;4.698;2022-10-23T01:58:32;8.43;;;3.03;;
22072;SDS011;11202;50.916;4.698;2022-10-23T02:01:00;12.38;;;3.50;;
22072;SDS011;11202;50.916;4.698;2022-10-23T02:03:32;13.90;;;3.60;;
22072;SDS011;11202;50.916;4.698;2022-10-23T02:06:00;6.93;;;3.00;;
22072;SDS011;11202;50.916;4.698;2022-10-23T02:08:26;8.45;;;2.92;;
22072;SDS011;11202;50.916;4.698;2022-10-23T02:13:22;10.45;;;3.28;;
22072;SDS011;11202;50.916;4.698;2022-10-23T02:15:57;7.55;;;3.67;;
22072;SDS011;11202;50.916;4.698;2022-10-23T02:18:33;6.18;;;2.90;;
22072;SDS011;11202;50.916;4.698;2022-10-23T02:21:16;11.05;;;3.40;;
22072;SDS011;11202;50.916;4.698;2022-10-23T02:26:24;10.65;;;3.20;;
22072;SDS011;11202;50.916;4.698;2022-10-23T02:29:06;6.45;;;3.60;;
22072;SDS011;11202;50.916;4.698;2022-10-23T02:34:02;6.65;;;2.90;;
22072;SDS011;11202;50.916;4.698;2022-10-23T02:36:28;8.10;;;3.08;;
22072;SDS011;11202;50.916;4.698;2022-10-23T02:38:54;7.68;;;3.22;;
22072;SDS011;11202;50.916;4.698;2022-10-23T02:46:34;11.73;;;3.10;;
22072;SDS011;11202;50.916;4.698;2022-10-23T02:51:51;10.05;;;3.33;;
22072;SDS011;11202;50.916;4.698;2022-10-23T02:54:58;15.40;;;3.88;;
22072;SDS011;11202;50.916;4.698;2022-10-23T02:57:28;6.20;;;3.28;;
22072;SDS011;11202;50.916;4.698;2022-10-23T03:02:24;7.18;;;3.20;;
22072;SDS011;11202;50.916;4.698;2022-10-23T03:04:55;9.20;;;3.00;;
22072;SDS011;11202;50.916;4.698;2022-10-23T03:07:24;6.30;;;3.10;;
22072;SDS011;11202;50.916;4.698;2022-10-23T03:09:51;7.10;;;2.95;;
22072;SDS011;11202;50.916;4.698;2022-10-23T03:12:17;8.10;;;3.10;;
22072;SDS011;11202;50.916;4.698;2022-10-23T03:14:43;9.85;;;3.42;;
22072;SDS011;11202;50.916;4.698;2022-10-23T03:17:08;7.78;;;3.25;;
22072;SDS011;11202;50.916;4.698;2022-10-23T03:19:35;10.80;;;3.50;;
22072;SDS011;11202;50.916;4.698;2022-10-23T03:22:00;5.75;;;2.63;;
22072;SDS011;11202;50.916;4.698;2022-10-23T03:24:26;5.57;;;3.05;;
22072;SDS011;11202;50.916;4.698;2022-10-23T03:26:51;5.82;;;2.97;;
22072;SDS011;11202;50.916;4.698;2022-10-23T03:29:17;5.40;;;3.08;;
22072;SDS011;11202;50.916;4.698;2022-10-23T03:31:43;11.38;;;3.42;;
22072;SDS011;11202;50.916;4.698;2022-10-23T03:34:08;11.35;;;3.17;;
22072;SDS011;11202;50.916;4.698;2022-10-23T03:36:35;10.50;;;2.90;;
22072;SDS011;11202;50.916;4.698;2022-10-23T03:39:01;7.22;;;3.25;;
22072;SDS011;11202;50.916;4.698;2022-10-23T03:41:30;7.80;;;2.83;;
22072;SDS011;11202;50.916;4.698;2022-10-23T03:43:56;5.18;;;2.72;;
22072;SDS011;11202;50.916;4.698;2022-10-23T03:46:22;13.40;;;3.35;;
22072;SDS011;11202;50.916;4.698;2022-10-23T03:48:47;6.72;;;3.15;;
22072;SDS011;11202;50.916;4.698;2022-10-23T03:51:13;7.47;;;2.90;;
22072;SDS011;11202;50.916;4.698;2022-10-23T03:53:41;11.98;;;3.25;;
22072;SDS011;11202;50.916;4.698;2022-10-23T03:56:07;6.55;;;3.08;;
22072;SDS011;11202;50.916;4.698;2022-10-23T03:58:33;8.52;;;3.35;;
22072;SDS011;11202;50.916;4.698;2022-10-23T04:00:58;9.95;;;3.45;;
22072;SDS011;11202;50.916;4.698;2022-10-23T04:03:25;9.85;;;3.20;;
22072;SDS011;11202;50.916;4.698;2022-10-23T04:05:50;7.03;;;2.65;;
22072;SDS011;11202;50.916;4.698;2022-10-23T04:08:19;10.80;;;3.25;;
22072;SDS011;11202;50.916;4.698;2022-10-23T04:10:49;9.65;;;3.20;;
22072;SDS011;11202;50.916;4.698;2022-10-23T04:13:15;7.90;;;3.17;;
22072;SDS011;11202;50.916;4.698;2022-10-23T04:15:46;6.47;;;2.80;;
22072;SDS011;11202;50.916;4.698;2022-10-23T04:18:16;8.95;;;2.90;;
22072;SDS011;11202;50.916;4.698;2022-10-23T04:20:47;5.28;;;2.60;;
22072;SDS011;11202;50.916;4.698;2022-10-23T04:23:14;12.32;;;3.95;;
22072;SDS011;11202;50.916;4.698;2022-10-23T04:25:40;12.63;;;3.38;;
22072;SDS011;11202;50.916;4.698;2022-10-23T04:28:10;7.28;;;3.08;;
22072;SDS011;11202;50.916;4.698;2022-10-23T04:30:36;8.13;;;2.92;;
22072;SDS011;11202;50.916;4.698;2022-10-23T04:33:07;8.07;;;2.78;;
22072;SDS011;11202;50.916;4.698;2022-10-23T04:35:33;6.45;;;3.22;;
22072;SDS011;11202;50.916;4.698;2022-10-23T04:37:59;11.88;;;3.42;;
22072;SDS011;11202;50.916;4.698;2022-10-23T04:40:24;7.68;;;3.20;;
22072;SDS011;11202;50.916;4.698;2022-10-23T04:42:50;8.38;;;3.03;;
22072;SDS011;11202;50.916;4.698;2022-10-23T04:45:16;6.50;;;2.92;;
22072;SDS011;11202;50.916;4.698;2022-10-23T04:47:44;8.95;;;2.70;;
22072;SDS011;11202;50.916;4.698;2022-10-23T04:50:10;10.48;;;3.10;;
22072;SDS011;11202;50.916;4.698;2022-10-23T04:52:36;8.43;;;3.08;;
22072;SDS011;11202;50.916;4.698;2022-10-23T04:55:06;10.20;;;3.33;;
22072;SDS011;11202;50.916;4.698;2022-10-23T04:57:33;7.65;;;3.15;;
22072;SDS011;11202;50.916;4.698;2022-10-23T04:59:59;8.57;;;3.00;;
22072;SDS011;11202;50.916;4.698;2022-10-23T05:02:28;5.90;;;2.90;;
22072;SDS011;11202;50.916;4.698;2022-10-23T05:04:56;5.93;;;3.28;;
22072;SDS011;11202;50.916;4.698;2022-10-23T05:07:24;7.60;;;3.05;;
22072;SDS011;11202;50.916;4.698;2022-10-23T05:09:50;4.53;;;3.13;;
22072;SDS011;11202;50.916;4.698;2022-10-23T05:12:16;10.35;;;3.65;;
22072;SDS011;11202;50.916;4.698;2022-10-23T05:14:42;7.38;;;3.20;;
22072;SDS011;11202;50.916;4.698;2022-10-23T05:17:11;7.22;;;3.25;;
22072;SDS011;11202;50.916;4.698;2022-10-23T05:19:41;9.55;;;2.97;;
22072;SDS011;11202;50.916;4.698;2022-10-23T05:22:11;8.60;;;2.97;;
22072;SDS011;11202;50.916;4.698;2022-10-23T05:24:40;5.85;;;2.83;;
22072;SDS011;11202;50.916;4.698;2022-10-23T05:27:06;13.13;;;3.00;;
22072;SDS011;11202;50.916;4.698;2022-10-23T05:29:32;6.03;;;2.85;;
22072;SDS011;11202;50.916;4.698;2022-10-23T05:32:00;5.18;;;2.78;;
22072;SDS011;11202;50.916;4.698;2022-10-23T05:34:28;7.03;;;2.90;;
22072;SDS011;11202;50.916;4.698;2022-10-23T05:36:56;7.53;;;2.60;;
22072;SDS011;11202;50.916;4.698;2022-10-23T05:39:22;9.73;;;3.00;;
22072;SDS011;11202;50.916;4.698;2022-10-23T05:41:48;5.13;;;2.80;;
22072;SDS011;11202;50.916;4.698;2022-10-23T05:44:16;10.50;;;3.00;;
22072;SDS011;11202;50.916;4.698;2022-10-23T05:46:42;10.18;;;2.70;;
22072;SDS011;11202;50.916;4.698;2022-10-23T05:49:11;5.60;;;2.80;;
22072;SDS011;11202;50.916;4.698;2022-10-23T05:51:37;6.65;;;3.13;;
22072;SDS011;11202;50.916;4.698;2022-10-23T05:54:04;6.45;;;2.97;;
22072;SDS011;11202;50.916;4.698;2022-10-23T05:56:37;7.70;;;3.42;;
22072;SDS011;11202;50.916;4.698;2022-10-23T05:59:06;6.95;;;2.58;;
22072;SDS011;11202;50.916;4.698;2022-10-23T06:01:32;4.60;;;2.60;;
22072;SDS011;11202;50.916;4.698;2022-10-23T06:03:58;8.27;;;2.70;;
22072;SDS011;11202;50.916;4.698;2022-10-23T06:06:25;5.00;;;2.80;;
22072;SDS011;11202;50.916;4.698;2022-10-23T06:08:50;7.15;;;2.50;;
22072;SDS011;11202;50.916;4.698;2022-10-23T06:11:17;7.78;;;2.67;;
22072;SDS011;11202;50.916;4.698;2022-10-23T06:13:44;8.02;;;3.10;;
22072;SDS011;11202;50.916;4.698;2022-10-23T06:16:14;6.88;;;2.28;;
22072;SDS011;11202;50.916;4.698;2022-10-23T06:18:42;7.25;;;2.75;;
22072;SDS011;11202;50.916;4.698;2022-10-23T06:21:11;6.25;;;2.95;;
22072;SDS011;11202;50.916;4.698;2022-10-23T06:23:42;4.90;;;2.50;;
22072;SDS011;11202;50.916;4.698;2022-10-23T06:26:14;7.25;;;2.20;;
22072;SDS011;11202;50.916;4.698;2022-10-23T06:28:41;9.10;;;2.50;;
22072;SDS011;11202;50.916;4.698;2022-10-23T06:31:09;6.38;;;2.58;;
22072;SDS011;11202;50.916;4.698;2022-10-23T06:33:38;8.50;;;2.90;;
22072;SDS011;11202;50.916;4.698;2022-10-23T06:36:05;3.95;;;2.60;;
22072;SDS011;11202;50.916;4.698;2022-10-23T06:38:34;7.00;;;2.42;;
22072;SDS011;11202;50.916;4.698;2022-10-23T06:43:33;5.43;;;2.65;;
22072;SDS011;11202;50.916;4.698;2022-10-23T06:46:01;5.63;;;2.58;;
22072;SDS011;11202;50.916;4.698;2022-10-23T06:48:29;7.82;;;2.58;;
22072;SDS011;11202;50.916;4.698;2022-10-23T06:50:58;6.35;;;2.55;;
22072;SDS011;11202;50.916;4.698;2022-10-23T06:53:28;4.30;;;2.45;;
22072;SDS011;11202;50.916;4.698;2022-10-23T06:55:57;5.05;;;2.97;;
22072;SDS011;11202;50.916;4.698;2022-10-23T06:58:27;6.78;;;2.92;;
22072;SDS011;11202;50.916;4.698;2022-10-23T07:00:53;8.57;;;2.85;;
22072;SDS011;11202;50.916;4.698;2022-10-23T07:03:19;9.70;;;2.92;;
22072;SDS011;11202;50.916;4.698;2022-10-23T07:05:45;7.97;;;2.83;;
22072;SDS011;11202;50.916;4.698;2022-10-23T07:08:13;6.93;;;2.63;;
22072;SDS011;11202;50.916;4.698;2022-10-23T07:10:42;6.35;;;2.60;;
22072;SDS011;11202;50.916;4.698;2022-10-23T07:13:13;5.78;;;2.65;;
22072;SDS011;11202;50.916;4.698;2022-10-23T07:15:42;6.32;;;2.67;;
22072;SDS011;11202;50.916;4.698;2022-10-23T07:18:08;6.07;;;2.80;;
22072;SDS011;11202;50.916;4.698;2022-10-23T07:23:10;6.23;;;2.90;;
22072;SDS011;11202;50.916;4.698;2022-10-23T07:25:36;7.17;;;2.77;;
22072;SDS011;11202;50.916;4.698;2022-10-23T07:28:02;6.15;;;2.63;;
22072;SDS011;11202;50.916;4.698;2022-10-23T07:30:28;9.68;;;2.88;;
22072;SDS011;11202;50.916;4.698;2022-10-23T07:32:54;6.63;;;2.80;;
22072;SDS011;11202;50.916;4.698;2022-10-23T07:35:20;4.68;;;2.75;;
22072;SDS011;11202;50.916;4.698;2022-10-23T07:37:45;4.00;;;2.47;;
22072;SDS011;11202;50.916;4.698;2022-10-23T07:40:12;10.10;;;2.83;;
22072;SDS011;11202;50.916;4.698;2022-10-23T07:42:38;3.85;;;2.67;;
22072;SDS011;11202;50.916;4.698;2022-10-23T07:45:04;5.38;;;2.55;;
22072;SDS011;11202;50.916;4.698;2022-10-23T07:47:31;9.15;;;2.47;;
22072;SDS011;11202;50.916;4.698;2022-10-23T07:49:59;6.80;;;2.53;;
22072;SDS011;11202;50.916;4.698;2022-10-23T07:52:25;3.28;;;2.17;;
22072;SDS011;11202;50.916;4.698;2022-10-23T07:54:51;5.72;;;2.50;;
22072;SDS011;11202;50.916;4.698;2022-10-23T07:57:19;5.50;;;2.50;;
22072;SDS011;11202;50.916;4.698;2022-10-23T07:59:47;5.97;;;2.33;;
22072;SDS011;11202;50.916;4.698;2022-10-23T08:02:13;6.85;;;2.20;;
22072;SDS011;11202;50.916;4.698;2022-10-23T08:04:39;4.40;;;2.28;;
22072;SDS011;11202;50.916;4.698;2022-10-23T08:07:05;5.88;;;2.45;;
22072;SDS011;11202;50.916;4.698;2022-10-23T08:09:31;7.13;;;2.35;;
22072;SDS011;11202;50.916;4.698;2022-10-23T08:11:58;8.63;;;2.40;;
22072;SDS011;11202;50.916;4.698;2022-10-23T08:14:24;5.60;;;2.17;;
22072;SDS011;11202;50.916;4.698;2022-10-23T08:16:50;3.55;;;1.95;;
22072;SDS011;11202;50.916;4.698;2022-10-23T08:19:18;6.82;;;2.20;;
22072;SDS011;11202;50.916;4.698;2022-10-23T08:21:44;6.40;;;2.60;;
22072;SDS011;11202;50.916;4.698;2022-10-23T08:24:10;8.35;;;2.70;;
22072;SDS011;11202;50.916;4.698;2022-10-23T08:26:39;5.55;;;2.60;;
22072;SDS011;11202;50.916;4.698;2022-10-23T08:29:05;6.75;;;2.75;;
22072;SDS011;11202;50.916;4.698;2022-10-23T08:31:31;5.60;;;2.60;;
22072;SDS011;11202;50.916;4.698;2022-10-23T08:33:56;6.88;;;2.50;;
22072;SDS011;11202;50.916;4.698;2022-10-23T08:36:23;5.20;;;2.55;;
22072;SDS011;11202;50.916;4.698;2022-10-23T08:38:56;6.80;;;2.72;;
22072;SDS011;11202;50.916;4.698;2022-10-23T08:41:24;7.38;;;2.90;;
22072;SDS011;11202;50.916;4.698;2022-10-23T08:47:02;6.63;;;2.50;;
22072;SDS011;11202;50.916;4.698;2022-10-23T08:49:48;5.72;;;2.75;;
22072;SDS011;11202;50.916;4.698;2022-10-23T08:52:22;9.05;;;2.83;;
22072;SDS011;11202;50.916;4.698;2022-10-23T08:57:27;10.35;;;2.88;;
22072;SDS011;11202;50.916;4.698;2022-10-23T09:00:00;6.68;;;2.80;;
22072;SDS011;11202;50.916;4.698;2022-10-23T09:02:35;9.30;;;2.88;;
22072;SDS011;11202;50.916;4.698;2022-10-23T09:05:28;7.10;;;2.58;;
22072;SDS011;11202;50.916;4.698;2022-10-23T09:10:55;9.18;;;2.85;;
22072;SDS011;11202;50.916;4.698;2022-10-23T09:16:41;4.65;;;2.75;;
22072;SDS011;11202;50.916;4.698;2022-10-23T09:19:13;5.43;;;2.67;;
22072;SDS011;11202;50.916;4.698;2022-10-23T09:21:43;4.35;;;2.65;;
22072;SDS011;11202;50.916;4.698;2022-10-23T09:24:14;5.68;;;2.85;;
22072;SDS011;11202;50.916;4.698;2022-10-23T09:26:45;6.43;;;3.03;;
22072;SDS011;11202;50.916;4.698;2022-10-23T09:32:00;7.75;;;2.90;;
22072;SDS011;11202;50.916;4.698;2022-10-23T09:34:28;11.10;;;3.05;;
22072;SDS011;11202;50.916;4.698;2022-10-23T09:37:18;8.77;;;3.50;;
22072;SDS011;11202;50.916;4.698;2022-10-23T09:39:48;7.65;;;2.88;;
22072;SDS011;11202;50.916;4.698;2022-10-23T09:42:24;8.85;;;3.08;;
22072;SDS011;11202;50.916;4.698;2022-10-23T09:44:51;11.23;;;2.90;;
22072;SDS011;11202;50.916;4.698;2022-10-23T09:47:19;8.73;;;3.17;;
22072;SDS011;11202;50.916;4.698;2022-10-23T09:49:49;7.97;;;3.03;;
22072;SDS011;11202;50.916;4.698;2022-10-23T09:52:20;7.30;;;3.08;;
22072;SDS011;11202;50.916;4.698;2022-10-23T09:54:50;5.18;;;3.05;;
22072;SDS011;11202;50.916;4.698;2022-10-23T09:57:29;8.32;;;3.50;;
22072;SDS011;11202;50.916;4.698;2022-10-23T10:00:14;6.68;;;2.88;;
22072;SDS011;11202;50.916;4.698;2022-10-23T10:02:53;10.32;;;3.42;;
22072;SDS011;11202;50.916;4.698;2022-10-23T10:10:38;4.03;;;2.58;;
22072;SDS011;11202;50.916;4.698;2022-10-23T10:16:50;8.55;;;3.33;;
22072;SDS011;11202;50.916;4.698;2022-10-23T10:24:48;7.50;;;2.83;;
22072;SDS011;11202;50.916;4.698;2022-10-23T10:31:02;7.95;;;2.58;;
22072;SDS011;11202;50.916;4.698;2022-10-23T10:33:47;5.93;;;3.05;;
22072;SDS011;11202;50.916;4.698;2022-10-23T10:39:10;7.03;;;2.63;;
22072;SDS011;11202;50.916;4.698;2022-10-23T10:50:42;17.90;;;3.20;;
22072;SDS011;11202;50.916;4.698;2022-10-23T10:53:33;8.63;;;2.95;;
22072;SDS011;11202;50.916;4.698;2022-10-23T10:58:49;10.55;;;3.13;;
22072;SDS011;11202;50.916;4.698;2022-10-23T11:04:21;5.80;;;2.92;;
22072;SDS011;11202;50.916;4.698;2022-10-23T11:07:04;7.35;;;3.67;;
22072;SDS011;11202;50.916;4.698;2022-10-23T11:09:33;7.15;;;2.65;;
22072;SDS011;11202;50.916;4.698;2022-10-23T11:11:59;7.95;;;2.72;;
22072;SDS011;11202;50.916;4.698;2022-10-23T11:14:26;5.57;;;2.65;;
22072;SDS011;11202;50.916;4.698;2022-10-23T11:17:08;7.53;;;2.85;;
22072;SDS011;11202;50.916;4.698;2022-10-23T11:25:17;7.57;;;2.58;;
22072;SDS011;11202;50.916;4.698;2022-10-23T11:39:17;8.57;;;2.72;;
22072;SDS011;11202;50.916;4.698;2022-10-23T11:41:51;11.63;;;3.30;;
22072;SDS011;11202;50.916;4.698;2022-10-23T11:44:24;6.28;;;2.63;;
22072;SDS011;11202;50.916;4.698;2022-10-23T11:47:24;6.32;;;2.67;;
22072;SDS011;11202;50.916;4.698;2022-10-23T11:55:17;10.95;;;2.95;;
22072;SDS011;11202;50.916;4.698;2022-10-23T12:00:29;7.78;;;2.65;;
22072;SDS011;11202;50.916;4.698;2022-10-23T12:02:55;9.75;;;2.92;;
22072;SDS011;11202;50.916;4.698;2022-10-23T12:08:27;5.93;;;2.28;;
22072;SDS011;11202;50.916;4.698;2022-10-23T12:10:53;5.43;;;2.40;;
22072;SDS011;11202;50.916;4.698;2022-10-23T12:16:00;6.30;;;2.50;;
22072;SDS011;11202;50.916;4.698;2022-10-23T12:18:27;8.45;;;2.45;;
22072;SDS011;11202;50.916;4.698;2022-10-23T12:20:54;8.90;;;2.40;;
22072;SDS011;11202;50.916;4.698;2022-10-23T12:23:27;12.93;;;3.85;;
22072;SDS011;11202;50.916;4.698;2022-10-23T12:28:32;6.28;;;2.50;;
22072;SDS011;11202;50.916;4.698;2022-10-23T12:37:11;9.93;;;2.90;;
22072;SDS011;11202;50.916;4.698;2022-10-23T12:39:51;8.27;;;2.83;;
22072;SDS011;11202;50.916;4.698;2022-10-23T12:42:25;6.45;;;2.40;;
22072;SDS011;11202;50.916;4.698;2022-10-23T12:47:55;4.22;;;2.50;;
22072;SDS011;11202;50.916;4.698;2022-10-23T12:50:24;9.10;;;2.50;;
22072;SDS011;11202;50.916;4.698;2022-10-23T12:52:57;7.43;;;2.40;;
22072;SDS011;11202;50.916;4.698;2022-10-23T12:55:27;7.32;;;2.50;;
22072;SDS011;11202;50.916;4.698;2022-10-23T12:58:43;7.15;;;2.60;;
22072;SDS011;11202;50.916;4.698;2022-10-23T13:01:19;5.13;;;2.50;;
22072;SDS011;11202;50.916;4.698;2022-10-23T13:06:34;11.45;;;3.05;;
22072;SDS011;11202;50.916;4.698;2022-10-23T13:09:03;14.18;;;2.40;;
22072;SDS011;11202;50.916;4.698;2022-10-23T13:11:31;7.50;;;2.28;;
22072;SDS011;11202;50.916;4.698;2022-10-23T13:13:57;7.90;;;2.50;;
22072;SDS011;11202;50.916;4.698;2022-10-23T13:16:24;6.25;;;2.55;;
22072;SDS011;11202;50.916;4.698;2022-10-23T13:18:51;13.32;;;2.85;;
22072;SDS011;11202;50.916;4.698;2022-10-23T13:21:24;10.65;;;3.13;;
22072;SDS011;11202;50.916;4.698;2022-10-23T13:23:55;7.75;;;2.50;;
22072;SDS011;11202;50.916;4.698;2022-10-23T13:29:42;10.38;;;2.20;;
22072;SDS011;11202;50.916;4.698;2022-10-23T13:32:10;5.43;;;2.00;;
22072;SDS011;11202;50.916;4.698;2022-10-23T13:34:37;5.60;;;2.13;;
22072;SDS011;11202;50.916;4.698;2022-10-23T13:37:20;6.05;;;2.30;;
22072;SDS011;11202;50.916;4.698;2022-10-23T13:40:00;4.50;;;2.03;;
22072;SDS011;11202;50.916;4.698;2022-10-23T13:42:28;9.35;;;2.00;;
22072;SDS011;11202;50.916;4.698;2022-10-23T13:44:54;6.20;;;2.03;;
22072;SDS011;11202;50.916;4.698;2022-10-23T13:47:20;3.67;;;2.17;;
22072;SDS011;11202;50.916;4.698;2022-10-23T13:49:46;6.18;;;2.05;;
22072;SDS011;11202;50.916;4.698;2022-10-23T13:52:13;6.95;;;2.40;;
22072;SDS011;11202;50.916;4.698;2022-10-23T13:54:47;7.97;;;2.30;;
22072;SDS011;11202;50.916;4.698;2022-10-23T13:57:14;5.57;;;2.53;;
22072;SDS011;11202;50.916;4.698;2022-10-23T13:59:42;9.37;;;2.53;;
22072;SDS011;11202;50.916;4.698;2022-10-23T14:02:19;8.80;;;2.55;;
22072;SDS011;11202;50.916;4.698;2022-10-23T14:04:49;5.63;;;2.40;;
22072;SDS011;11202;50.916;4.698;2022-10-23T14:07:15;7.35;;;2.30;;
22072;SDS011;11202;50.916;4.698;2022-10-23T14:09:41;6.75;;;2.53;;
22072;SDS011;11202;50.916;4.698;2022-10-23T14:12:09;7.07;;;2.45;;
22072;SDS011;11202;50.916;4.698;2022-10-23T14:14:36;8.82;;;2.47;;
22072;SDS011;11202;50.916;4.698;2022-10-23T14:17:04;7.10;;;2.67;;
22072;SDS011;11202;50.916;4.698;2022-10-23T14:19:29;5.53;;;2.40;;
22072;SDS011;11202;50.916;4.698;2022-10-23T14:21:59;6.75;;;2.55;;
22072;SDS011;11202;50.916;4.698;2022-10-23T14:24:25;12.38;;;2.92;;
22072;SDS011;11202;50.916;4.698;2022-10-23T14:26:51;8.68;;;2.80;;
22072;SDS011;11202;50.916;4.698;2022-10-23T14:29:19;9.32;;;2.75;;
22072;SDS011;11202;50.916;4.698;2022-10-23T14:31:45;8.02;;;2.92;;
22072;SDS011;11202;50.916;4.698;2022-10-23T14:34:11;11.18;;;2.90;;
22072;SDS011;11202;50.916;4.698;2022-10-23T14:36:38;4.63;;;2.40;;
22072;SDS011;11202;50.916;4.698;2022-10-23T14:39:04;7.18;;;2.70;;
22072;SDS011;11202;50.916;4.698;2022-10-23T14:41:31;12.35;;;2.53;;
22072;SDS011;11202;50.916;4.698;2022-10-23T14:43:59;5.60;;;2.60;;
22072;SDS011;11202;50.916;4.698;2022-10-23T14:46:25;13.13;;;2.55;;
22072;SDS011;11202;50.916;4.698;2022-10-23T14:48:52;11.32;;;3.10;;
22072;SDS011;11202;50.916;4.698;2022-10-23T14:51:22;10.00;;;2.67;;
22072;SDS011;11202;50.916;4.698;2022-10-23T14:53:53;7.47;;;2.65;;
22072;SDS011;11202;50.916;4.698;2022-10-23T14:56:23;6.53;;;2.92;;
22072;SDS011;11202;50.916;4.698;2022-10-23T14:58:50;7.93;;;2.63;;
22072;SDS011;11202;50.916;4.698;2022-10-23T15:01:18;6.88;;;2.60;;
22072;SDS011;11202;50.916;4.698;2022-10-23T15:03:44;5.10;;;2.50;;
22072;SDS011;11202;50.916;4.698;2022-10-23T15:06:10;10.35;;;2.97;;
22072;SDS011;11202;50.916;4.698;2022-10-23T15:08:35;9.18;;;3.05;;
22072;SDS011;11202;50.916;4.698;2022-10-23T15:11:02;8.68;;;3.13;;
22072;SDS011;11202;50.916;4.698;2022-10-23T15:13:29;6.85;;;2.83;;
22072;SDS011;11202;50.916;4.698;2022-10-23T15:16:05;7.72;;;2.83;;
22072;SDS011;11202;50.916;4.698;2022-10-23T15:28:15;9.95;;;2.75;;
22072;SDS011;11202;50.916;4.698;2022-10-23T15:30:41;8.20;;;2.90;;
22072;SDS011;11202;50.916;4.698;2022-10-23T15:36:31;9.95;;;4.32;;
22072;SDS011;11202;50.916;4.698;2022-10-23T15:39:09;12.05;;;6.50;;
22072;SDS011;11202;50.916;4.698;2022-10-23T15:41:36;15.68;;;7.68;;
22072;SDS011;11202;50.916;4.698;2022-10-23T15:44:11;17.17;;;10.52;;
22072;SDS011;11202;50.916;4.698;2022-10-23T15:46:41;10.63;;;6.20;;
22072;SDS011;11202;50.916;4.698;2022-10-23T15:49:07;10.13;;;5.43;;
22072;SDS011;11202;50.916;4.698;2022-10-23T15:51:41;13.02;;;6.22;;
22072;SDS011;11202;50.916;4.698;2022-10-23T15:54:08;30.00;;;14.38;;
22072;SDS011;11202;50.916;4.698;2022-10-23T15:59:02;54.08;;;27.10;;
22072;SDS011;11202;50.916;4.698;2022-10-23T16:01:28;29.75;;;11.90;;
22072;SDS011;11202;50.916;4.698;2022-10-23T16:07:20;14.40;;;4.70;;
22072;SDS011;11202;50.916;4.698;2022-10-23T16:10:03;15.00;;;5.93;;
22072;SDS011;11202;50.916;4.698;2022-10-23T16:12:29;18.60;;;8.52;;
22072;SDS011;11202;50.916;4.698;2022-10-23T16:14:55;13.32;;;4.53;;
22072;SDS011;11202;50.916;4.698;2022-10-23T16:20:49;12.70;;;5.50;;
22072;SDS011;11202;50.916;4.698;2022-10-23T16:29:47;13.63;;;6.90;;
22072;SDS011;11202;50.916;4.698;2022-10-23T16:32:15;9.73;;;3.65;;
22072;SDS011;11202;50.916;4.698;2022-10-23T16:34:56;8.13;;;3.22;;
22072;SDS011;11202;50.916;4.698;2022-10-23T16:40:19;9.85;;;4.80;;
22072;SDS011;11202;50.916;4.698;2022-10-23T16:42:48;13.88;;;6.63;;
22072;SDS011;11202;50.916;4.698;2022-10-23T16:45:17;10.45;;;3.40;;
22072;SDS011;11202;50.916;4.698;2022-10-23T16:47:45;8.82;;;4.25;;
22072;SDS011;11202;50.916;4.698;2022-10-23T16:50:10;9.98;;;4.05;;
22072;SDS011;11202;50.916;4.698;2022-10-23T16:52:38;10.77;;;5.25;;
22072;SDS011;11202;50.916;4.698;2022-10-23T16:55:06;10.70;;;3.33;;
22072;SDS011;11202;50.916;4.698;2022-10-23T16:57:35;10.20;;;4.80;;
22072;SDS011;11202;50.916;4.698;2022-10-23T17:00:03;9.60;;;4.32;;
22072;SDS011;11202;50.916;4.698;2022-10-23T17:02:29;8.95;;;3.50;;
22072;SDS011;11202;50.916;4.698;2022-10-23T17:04:55;9.25;;;4.40;;
22072;SDS011;11202;50.916;4.698;2022-10-23T17:07:22;11.60;;;3.85;;
22072;SDS011;11202;50.916;4.698;2022-10-23T17:09:48;5.07;;;2.80;;
22072;SDS011;11202;50.916;4.698;2022-10-23T17:12:14;5.95;;;2.58;;
22072;SDS011;11202;50.916;4.698;2022-10-23T17:14:40;6.28;;;2.50;;
22072;SDS011;11202;50.916;4.698;2022-10-23T17:17:06;10.32;;;2.53;;
22072;SDS011;11202;50.916;4.698;2022-10-23T17:19:33;6.50;;;2.75;;
22072;SDS011;11202;50.916;4.698;2022-10-23T17:22:07;10.10;;;2.47;;
22072;SDS011;11202;50.916;4.698;2022-10-23T17:24:35;7.70;;;2.60;;
22072;SDS011;11202;50.916;4.698;2022-10-23T17:27:06;9.60;;;2.40;;
22072;SDS011;11202;50.916;4.698;2022-10-23T17:29:34;5.80;;;2.33;;
22072;SDS011;11202;50.916;4.698;2022-10-23T17:32:00;6.00;;;2.10;;
22072;SDS011;11202;50.916;4.698;2022-10-23T17:34:26;5.60;;;2.53;;
22072;SDS011;11202;50.916;4.698;2022-10-23T17:36:54;5.28;;;2.65;;
22072;SDS011;11202;50.916;4.698;2022-10-23T17:39:22;11.57;;;2.55;;
22072;SDS011;11202;50.916;4.698;2022-10-23T17:41:53;7.05;;;2.30;;